Time;durP1;ratioP1;P1;durP2;ratioP2;P2;SDS_P1;SDS_P2;PMS_P1;PMS_P2;Temp;Humidity;BMP_temperature;BMP_pressure;BME280_temperature;BME280_humidity;BME280_pressure;Samples;Min_cycle;Max_cycle;Signal;HPM_P1;HPM_P2
2023/01/22 00:01:32;;;;;;;13.82;9.82;;;-0.10;99.90;;;;;;5013971;28;20034;-60
2023/01/22 00:03:58;;;;;;;14.57;10.15;;;-0.10;99.90;;;;;;5015187;28;20026;-60
2023/01/22 00:06:24;;;;;;;14.23;8.98;;;-0.10;99.90;;;;;;5009022;28;20450;-60
2023/01/22 00:08:50;;;;;;;12.82;10.50;;;-0.10;99.90;;;;;;5009374;28;20040;-59
2023/01/22 00:11:17;;;;;;;11.20;8.82;;;-0.10;99.90;;;;;;5024496;28;20113;-58
2023/01/22 00:13:43;;;;;;;12.70;9.77;;;-0.10;99.90;;;;;;5009332;28;20068;-59
2023/01/22 00:16:14;;;;;;;16.60;9.93;;;-0.10;99.90;;;;;;5006704;28;20018;-59
2023/01/22 00:18:39;;;;;;;14.25;9.15;;;-0.10;99.90;;;;;;5010111;28;20096;-60
2023/01/22 00:21:05;;;;;;;13.68;9.88;;;-0.10;99.90;;;;;;5008974;28;20371;-60
2023/01/22 00:23:32;;;;;;;11.80;9.38;;;-0.10;99.90;;;;;;5009837;28;20026;-59
2023/01/22 00:26:10;;;;;;;12.60;9.63;;;-0.10;99.90;;;;;;5009294;28;20029;-59
2023/01/22 00:28:37;;;;;;;15.60;9.70;;;-0.10;99.90;;;;;;5011809;28;20014;-59
2023/01/22 00:31:04;;;;;;;9.68;8.48;;;-0.10;99.90;;;;;;5010961;28;20108;-59
2023/01/22 00:33:30;;;;;;;13.23;9.30;;;0.00;99.90;;;;;;5011847;28;20049;-59
2023/01/22 00:35:56;;;;;;;16.05;10.15;;;-0.10;99.90;;;;;;5010441;28;20520;-60
2023/01/22 00:38:22;;;;;;;12.77;10.52;;;-0.10;99.90;;;;;;5009114;28;20066;-60
2023/01/22 00:40:47;;;;;;;13.23;10.38;;;-0.10;99.90;;;;;;5003568;28;20046;-59
2023/01/22 00:43:13;;;;;;;17.95;9.93;;;-0.10;99.90;;;;;;5003395;28;20022;-59
2023/01/22 00:45:39;;;;;;;13.60;10.35;;;-0.10;99.90;;;;;;5007794;28;20113;-59
2023/01/22 00:48:05;;;;;;;13.48;9.93;;;-0.10;99.90;;;;;;5006126;28;20524;-59
2023/01/22 00:50:30;;;;;;;15.43;10.48;;;-0.10;99.90;;;;;;5003148;28;20030;-59
2023/01/22 00:52:56;;;;;;;12.45;9.82;;;-0.10;99.90;;;;;;5006137;28;20037;-60
2023/01/22 00:55:22;;;;;;;14.15;11.05;;;-0.10;99.90;;;;;;5004854;28;20036;-58
2023/01/22 00:57:47;;;;;;;11.68;8.57;;;-0.10;99.90;;;;;;5002255;28;20499;-60
2023/01/22 01:00:14;;;;;;;13.70;10.57;;;-0.10;99.90;;;;;;5007399;28;20057;-60
2023/01/22 01:05:25;;;;;;;11.75;9.43;;;-0.10;99.90;;;;;;5009731;28;20512;-60
2023/01/22 01:07:51;;;;;;;12.52;9.45;;;-0.10;99.90;;;;;;5009859;28;20053;-59
2023/01/22 01:10:17;;;;;;;14.05;10.70;;;-0.10;99.90;;;;;;5012543;28;20025;-59
2023/01/22 01:12:42;;;;;;;13.45;9.27;;;-0.10;99.90;;;;;;5011353;28;20025;-58
2023/01/22 01:15:09;;;;;;;10.90;9.00;;;-0.10;99.90;;;;;;5007746;28;20389;-59
2023/01/22 01:17:34;;;;;;;14.02;9.85;;;-0.10;99.90;;;;;;5013830;28;20073;-58
2023/01/22 01:20:00;;;;;;;12.68;9.05;;;-0.10;99.90;;;;;;5013355;28;20053;-59
2023/01/22 01:22:26;;;;;;;11.07;9.18;;;-0.10;99.90;;;;;;5010830;28;20029;-59
2023/01/22 01:24:52;;;;;;;11.77;9.43;;;-0.10;99.90;;;;;;5014689;28;20049;-58
2023/01/22 01:27:17;;;;;;;10.15;8.60;;;-0.10;99.90;;;;;;5009899;28;20506;-59
2023/01/22 01:29:43;;;;;;;11.48;9.40;;;0.00;99.90;;;;;;5015117;28;20034;-59
2023/01/22 01:32:09;;;;;;;17.75;11.02;;;0.00;99.90;;;;;;5012598;28;20022;-60
2023/01/22 01:34:34;;;;;;;12.32;9.32;;;0.00;99.90;;;;;;5007326;28;20221;-57
2023/01/22 01:37:00;;;;;;;10.48;8.18;;;0.00;99.90;;;;;;5003636;28;20109;-60
2023/01/22 01:39:25;;;;;;;11.23;8.48;;;0.00;99.90;;;;;;5008646;28;20036;-59
2023/01/22 01:41:51;;;;;;;9.98;8.18;;;-0.10;99.90;;;;;;5016186;28;20521;-60
2023/01/22 01:44:20;;;;;;;9.57;8.63;;;-0.10;99.90;;;;;;5013911;28;20034;-60
2023/01/22 01:47:00;;;;;;;10.18;8.15;;;-0.10;99.90;;;;;;5012319;28;20512;-59
2023/01/22 01:49:32;;;;;;;9.57;7.60;;;-0.10;99.90;;;;;;5007667;28;20024;-60
2023/01/22 01:52:01;;;;;;;9.32;6.82;;;0.00;99.90;;;;;;5012633;28;20030;-60
2023/01/22 01:54:28;;;;;;;11.05;7.90;;;0.00;99.90;;;;;;5018921;28;20573;-59
2023/01/22 01:57:05;;;;;;;9.27;7.63;;;0.00;99.90;;;;;;5017895;28;20037;-59
2023/01/22 01:59:32;;;;;;;10.68;7.70;;;0.00;99.90;;;;;;5015419;28;20030;-59
2023/01/22 02:02:00;;;;;;;8.80;7.30;;;0.00;99.90;;;;;;5011801;28;20038;-60
2023/01/22 02:04:26;;;;;;;17.88;11.52;;;0.00;99.90;;;;;;5015372;28;20030;-59
2023/01/22 02:06:53;;;;;;;12.27;9.70;;;0.00;99.90;;;;;;5007669;28;20041;-59
2023/01/22 02:09:18;;;;;;;8.80;7.22;;;0.00;99.90;;;;;;5011330;28;20064;-59
2023/01/22 02:11:44;;;;;;;10.20;7.85;;;0.00;99.90;;;;;;5013797;28;20109;-60
2023/01/22 02:14:18;;;;;;;13.73;9.35;;;0.00;99.90;;;;;;5011532;28;20037;-60
2023/01/22 02:16:44;;;;;;;7.88;6.82;;;0.10;99.90;;;;;;5009798;28;20025;-60
2023/01/22 02:19:10;;;;;;;8.35;6.80;;;0.10;99.90;;;;;;5018284;28;20040;-60
2023/01/22 02:21:40;;;;;;;10.07;7.50;;;0.10;99.90;;;;;;5018445;28;20038;-60
2023/01/22 02:24:15;;;;;;;9.57;8.25;;;0.10;99.90;;;;;;4993873;28;20518;-57
2023/01/22 02:26:43;;;;;;;11.32;7.60;;;0.10;99.90;;;;;;5007478;28;20037;-60
2023/01/22 02:29:11;;;;;;;10.02;7.38;;;0.10;99.90;;;;;;5002616;28;20065;-59
2023/01/22 02:31:38;;;;;;;8.82;7.72;;;0.00;99.90;;;;;;5000702;28;20521;-61
2023/01/22 02:34:04;;;;;;;8.40;7.00;;;0.00;99.90;;;;;;5003456;28;20041;-60
2023/01/22 02:36:33;;;;;;;8.35;7.10;;;0.00;99.90;;;;;;5014075;28;20116;-60
2023/01/22 02:38:59;;;;;;;7.75;6.72;;;0.10;99.90;;;;;;5016659;28;20018;-59
2023/01/22 02:41:25;;;;;;;7.97;6.45;;;0.10;99.90;;;;;;5015767;28;20033;-59
2023/01/22 02:43:52;;;;;;;6.13;5.50;;;0.00;99.90;;;;;;5017599;28;20021;-59
2023/01/22 02:46:17;;;;;;;9.98;7.25;;;0.00;99.90;;;;;;5015690;28;20112;-60
2023/01/22 02:48:43;;;;;;;8.02;6.63;;;0.00;99.90;;;;;;5012292;28;20161;-59
2023/01/22 02:51:09;;;;;;;9.68;5.80;;;0.00;99.90;;;;;;5010659;28;20112;-59
2023/01/22 02:53:34;;;;;;;7.28;5.85;;;0.10;99.90;;;;;;5013796;28;20033;-57
2023/01/22 02:56:04;;;;;;;8.50;6.63;;;0.00;99.90;;;;;;5014252;28;20108;-59
2023/01/22 02:58:30;;;;;;;9.23;6.63;;;0.00;99.90;;;;;;5011337;28;20076;-59
2023/01/22 03:00:55;;;;;;;8.70;6.80;;;0.00;99.90;;;;;;5010332;28;20057;-59
2023/01/22 03:03:21;;;;;;;7.00;6.25;;;0.00;99.90;;;;;;5003794;28;20060;-59
2023/01/22 03:05:51;;;;;;;12.60;7.05;;;0.00;99.90;;;;;;5011009;28;20080;-60
2023/01/22 03:08:18;;;;;;;10.57;7.53;;;0.10;99.90;;;;;;5014994;28;20099;-60
2023/01/22 03:10:44;;;;;;;10.75;7.88;;;0.10;99.90;;;;;;5012525;28;20026;-59
2023/01/22 03:21:23;;;;;;;9.55;7.47;;;0.10;99.90;;;;;;5018688;28;20044;-59
2023/01/22 03:23:53;;;;;;;7.80;6.70;;;0.10;99.90;;;;;;5013121;28;20042;-60
2023/01/22 03:26:21;;;;;;;9.00;7.53;;;0.10;99.90;;;;;;5010738;28;20485;-59
2023/01/22 03:28:48;;;;;;;7.32;6.40;;;0.10;99.90;;;;;;5014372;28;20037;-60
2023/01/22 03:31:15;;;;;;;9.55;7.55;;;0.10;99.90;;;;;;5009999;28;20037;-60
2023/01/22 03:33:41;;;;;;;8.43;7.60;;;0.10;99.90;;;;;;5001448;28;20484;-59
2023/01/22 03:36:10;;;;;;;7.70;6.63;;;0.10;99.90;;;;;;4998518;28;20033;-60
2023/01/22 03:38:36;;;;;;;8.30;7.18;;;0.10;99.90;;;;;;5009402;28;20409;-58
2023/01/22 03:41:04;;;;;;;10.13;9.00;;;0.10;99.90;;;;;;5006769;28;20101;-59
2023/01/22 03:43:31;;;;;;;8.82;7.70;;;0.10;99.90;;;;;;5008193;28;20054;-59
2023/01/22 03:46:15;;;;;;;7.47;6.47;;;0.10;99.90;;;;;;5010929;28;20038;-59
2023/01/22 03:48:41;;;;;;;7.60;6.80;;;0.10;99.90;;;;;;5004520;28;20525;-59
2023/01/22 03:51:13;;;;;;;7.28;6.30;;;0.10;99.90;;;;;;5008942;28;20026;-59
2023/01/22 03:53:40;;;;;;;7.50;6.05;;;0.00;99.90;;;;;;5004610;28;20552;-59
2023/01/22 03:56:09;;;;;;;6.65;5.95;;;0.10;99.90;;;;;;5008194;28;20097;-60
2023/01/22 03:58:35;;;;;;;6.70;6.00;;;0.10;99.90;;;;;;5017233;28;20021;-58
2023/01/22 04:01:06;;;;;;;6.35;5.43;;;0.10;99.90;;;;;;5011684;28;20018;-59
2023/01/22 04:03:32;;;;;;;6.50;5.53;;;0.10;99.90;;;;;;5010096;28;20084;-60
2023/01/22 04:06:00;;;;;;;7.38;5.20;;;0.10;99.90;;;;;;5013871;28;20025;-59
2023/01/22 04:08:28;;;;;;;7.65;5.25;;;0.10;99.90;;;;;;5009141;28;20132;-60
2023/01/22 04:10:57;;;;;;;6.35;5.43;;;0.10;99.90;;;;;;5014485;28;20558;-60
2023/01/22 04:13:27;;;;;;;6.68;5.50;;;0.10;99.90;;;;;;5014211;28;20035;-60
2023/01/22 04:15:53;;;;;;;6.50;4.70;;;0.10;99.90;;;;;;5010989;28;20119;-60
2023/01/22 04:18:19;;;;;;;6.05;5.45;;;0.10;99.90;;;;;;5012011;28;20337;-60
2023/01/22 04:20:46;;;;;;;5.28;4.78;;;0.10;99.90;;;;;;5013020;28;20524;-59
2023/01/22 04:23:12;;;;;;;5.38;4.78;;;0.10;99.90;;;;;;5014263;28;20375;-60
2023/01/22 04:25:37;;;;;;;6.03;5.13;;;0.10;99.90;;;;;;5010028;28;20060;-60
2023/01/22 04:28:03;;;;;;;5.97;4.72;;;0.20;99.90;;;;;;5009349;28;20022;-60
2023/01/22 04:30:29;;;;;;;6.78;5.53;;;0.20;99.90;;;;;;4994683;28;20023;-61
2023/01/22 04:32:55;;;;;;;6.95;4.97;;;0.20;99.90;;;;;;5014036;28;20088;-58
2023/01/22 04:35:21;;;;;;;7.63;4.63;;;0.20;99.90;;;;;;5013034;28;20057;-58
2023/01/22 04:37:47;;;;;;;5.43;4.93;;;0.10;99.90;;;;;;5018371;28;20053;-59
2023/01/22 04:40:13;;;;;;;4.38;3.88;;;0.10;99.90;;;;;;5010628;28;20473;-59
2023/01/22 04:42:38;;;;;;;5.63;4.63;;;0.20;99.90;;;;;;5014659;28;20130;-58
2023/01/22 04:45:04;;;;;;;6.97;5.15;;;0.20;99.90;;;;;;5012344;28;20022;-59
2023/01/22 04:47:30;;;;;;;12.38;9.48;;;0.20;99.90;;;;;;5008919;28;20124;-59
2023/01/22 04:49:55;;;;;;;9.52;8.07;;;0.10;99.90;;;;;;5018131;28;20124;-59
2023/01/22 04:52:21;;;;;;;8.30;6.40;;;0.20;99.90;;;;;;5016953;28;20037;-59
2023/01/22 04:54:47;;;;;;;7.88;6.85;;;0.10;99.90;;;;;;5015583;28;20133;-59
2023/01/22 04:57:12;;;;;;;9.73;6.38;;;0.10;99.90;;;;;;5011833;28;20034;-59
2023/01/22 04:59:38;;;;;;;7.70;6.10;;;0.10;99.90;;;;;;5014775;28;20053;-59
2023/01/22 05:02:04;;;;;;;6.53;5.32;;;0.10;99.90;;;;;;5009360;28;20026;-59
2023/01/22 05:04:29;;;;;;;6.35;5.53;;;0.10;99.90;;;;;;5009454;28;20473;-59
2023/01/22 05:06:55;;;;;;;6.63;5.47;;;0.10;99.90;;;;;;5007893;28;20038;-58
2023/01/22 05:09:21;;;;;;;6.00;4.90;;;0.10;99.90;;;;;;5003488;28;20038;-60
2023/01/22 05:11:47;;;;;;;7.85;5.80;;;0.00;99.90;;;;;;5002982;28;20054;-59
2023/01/22 05:14:12;;;;;;;7.05;6.32;;;0.00;99.90;;;;;;4997988;28;20081;-60
2023/01/22 05:16:38;;;;;;;14.18;9.25;;;0.00;99.90;;;;;;5001843;28;20042;-59
2023/01/22 05:19:04;;;;;;;7.57;6.32;;;0.00;99.90;;;;;;5006416;28;20022;-59
2023/01/22 05:21:29;;;;;;;7.53;6.63;;;-0.10;99.90;;;;;;5004115;28;20030;-59
2023/01/22 05:23:55;;;;;;;7.50;6.70;;;-0.10;99.90;;;;;;5002879;28;20778;-58
2023/01/22 05:26:21;;;;;;;7.38;6.68;;;-0.10;99.90;;;;;;5012602;28;20061;-59
2023/01/22 05:28:46;;;;;;;7.60;6.90;;;-0.20;99.90;;;;;;5016850;28;20041;-59
2023/01/22 05:31:12;;;;;;;9.25;7.00;;;-0.20;99.90;;;;;;5013857;28;20017;-59
2023/01/22 05:33:39;;;;;;;10.60;7.15;;;-0.20;99.90;;;;;;5013194;28;20056;-60
2023/01/22 05:36:06;;;;;;;7.53;5.95;;;-0.20;99.90;;;;;;5012516;28;20061;-60
2023/01/22 05:38:31;;;;;;;8.00;6.13;;;-0.20;99.90;;;;;;5009703;28;20088;-60
2023/01/22 05:40:57;;;;;;;6.63;5.93;;;-0.30;99.90;;;;;;5008888;28;20022;-59
2023/01/22 05:43:23;;;;;;;7.40;6.70;;;-0.20;99.90;;;;;;5011381;28;20033;-59
2023/01/22 05:45:48;;;;;;;7.57;6.78;;;-0.20;99.90;;;;;;5010499;28;20066;-60
2023/01/22 05:48:14;;;;;;;7.07;6.03;;;-0.20;99.90;;;;;;5008545;28;20145;-59
2023/01/22 05:50:40;;;;;;;8.43;6.78;;;-0.20;99.90;;;;;;5004809;28;20034;-60
2023/01/22 05:53:06;;;;;;;9.57;6.00;;;-0.20;99.90;;;;;;5002730;28;20033;-59
2023/01/22 05:55:33;;;;;;;8.00;7.20;;;-0.20;99.90;;;;;;5004713;28;20024;-58
2023/01/22 05:57:58;;;;;;;9.43;7.93;;;-0.20;99.90;;;;;;5009243;28;20072;-59
2023/01/22 06:00:24;;;;;;;10.05;9.05;;;-0.30;99.90;;;;;;5010405;28;20034;-60
2023/01/22 06:02:58;;;;;;;15.90;10.32;;;-0.30;99.90;;;;;;5010218;28;20052;-59
2023/01/22 06:05:23;;;;;;;15.40;11.70;;;-0.30;99.90;;;;;;5005425;28;20088;-59
2023/01/22 06:07:49;;;;;;;10.90;8.50;;;-0.30;99.90;;;;;;5005392;28;20038;-59
2023/01/22 06:10:16;;;;;;;8.43;7.50;;;-0.30;99.90;;;;;;5007618;28;20061;-58
2023/01/22 06:12:41;;;;;;;8.40;7.10;;;-0.30;99.90;;;;;;5006344;28;20045;-58
2023/01/22 06:15:08;;;;;;;7.97;6.47;;;-0.30;99.90;;;;;;5009500;28;20034;-58
2023/01/22 06:17:33;;;;;;;8.52;7.30;;;-0.30;99.90;;;;;;5023438;28;20393;-59
2023/01/22 06:19:59;;;;;;;9.18;7.38;;;-0.30;99.90;;;;;;5009852;28;20034;-59
2023/01/22 06:22:24;;;;;;;12.50;9.30;;;-0.30;99.90;;;;;;5013990;28;20425;-59
2023/01/22 06:24:50;;;;;;;15.10;10.88;;;-0.30;99.90;;;;;;5003506;28;20043;-60
2023/01/22 06:27:16;;;;;;;18.35;9.82;;;-0.30;99.90;;;;;;5001583;28;20318;-60
2023/01/22 06:29:42;;;;;;;14.43;10.35;;;-0.30;99.90;;;;;;5001437;28;20087;-60
2023/01/22 06:32:07;;;;;;;14.35;10.38;;;-0.30;99.90;;;;;;5000043;28;20038;-59
2023/01/22 06:34:33;;;;;;;15.07;10.95;;;-0.30;99.90;;;;;;5013120;28;20033;-60
2023/01/22 06:36:59;;;;;;;13.35;10.63;;;-0.30;99.90;;;;;;5009501;28;20088;-59
2023/01/22 06:39:25;;;;;;;12.13;9.85;;;-0.30;99.90;;;;;;5010043;28;20569;-59
2023/01/22 06:41:50;;;;;;;11.95;9.48;;;-0.30;99.90;;;;;;5017494;28;20084;-59
2023/01/22 06:44:17;;;;;;;15.50;11.48;;;-0.30;99.90;;;;;;5017494;28;20076;-59
2023/01/22 06:46:45;;;;;;;12.93;9.82;;;-0.30;99.90;;;;;;5014013;28;20102;-58
2023/01/22 06:49:12;;;;;;;14.27;10.70;;;-0.30;99.90;;;;;;5008964;28;20137;-59
2023/01/22 06:51:38;;;;;;;17.52;10.38;;;-0.30;99.90;;;;;;5009187;28;20444;-59
2023/01/22 06:54:03;;;;;;;13.50;10.10;;;-0.30;99.90;;;;;;5017276;28;20026;-58
2023/01/22 06:56:29;;;;;;;14.25;10.35;;;-0.30;99.90;;;;;;5012781;28;20030;-58
2023/01/22 06:58:55;;;;;;;27.88;16.05;;;-0.30;99.90;;;;;;5015781;28;20137;-58
2023/01/22 07:01:21;;;;;;;17.63;10.05;;;-0.20;99.90;;;;;;5011875;28;20026;-60
2023/01/22 07:03:46;;;;;;;17.00;11.95;;;-0.20;99.90;;;;;;5016393;28;20033;-59
2023/01/22 07:06:13;;;;;;;19.48;13.00;;;-0.20;99.90;;;;;;5011935;28;20035;-59
2023/01/22 07:08:40;;;;;;;33.78;16.25;;;-0.20;99.90;;;;;;5009839;28;20481;-59
2023/01/22 07:11:05;;;;;;;16.58;12.43;;;-0.20;99.90;;;;;;5007009;28;20113;-60
2023/01/22 07:13:31;;;;;;;22.67;17.13;;;-0.20;99.90;;;;;;5012969;28;20113;-59
2023/01/22 07:16:01;;;;;;;20.70;14.02;;;-0.20;99.90;;;;;;5015301;28;20028;-59
2023/01/22 07:18:27;;;;;;;16.27;11.25;;;-0.10;99.90;;;;;;5011968;28;20026;-60
2023/01/22 07:20:53;;;;;;;24.95;14.98;;;-0.10;99.90;;;;;;5012781;28;20044;-61
2023/01/22 07:23:19;;;;;;;20.33;13.52;;;0.00;99.90;;;;;;5008333;28;20077;-60
2023/01/22 07:25:45;;;;;;;18.58;12.93;;;0.00;99.90;;;;;;5009965;28;20120;-59
2023/01/22 07:28:13;;;;;;;18.75;13.32;;;0.00;99.90;;;;;;5016247;28;20025;-59
2023/01/22 07:30:41;;;;;;;29.95;16.17;;;0.10;99.90;;;;;;5013280;28;20055;-60
2023/01/22 07:33:09;;;;;;;25.95;14.30;;;0.10;99.90;;;;;;5017089;28;20021;-60
2023/01/22 07:35:34;;;;;;;13.80;10.07;;;0.20;99.90;;;;;;5016040;28;20082;-60
2023/01/22 07:38:00;;;;;;;36.80;19.40;;;0.20;99.90;;;;;;5011078;28;20030;-59
2023/01/22 07:40:27;;;;;;;25.58;15.07;;;0.20;99.90;;;;;;5005783;28;20040;-60
2023/01/22 07:42:53;;;;;;;17.50;10.63;;;0.30;99.90;;;;;;5016523;28;20160;-60
2023/01/22 07:45:21;;;;;;;15.07;11.18;;;0.20;99.90;;;;;;5012637;28;20303;-59
2023/01/22 07:47:57;;;;;;;19.27;12.73;;;0.30;99.90;;;;;;5014588;28;20415;-59
2023/01/22 07:50:26;;;;;;;25.38;16.75;;;0.40;99.90;;;;;;5000326;28;20100;-60
2023/01/22 07:52:52;;;;;;;78.50;34.60;;;0.50;99.90;;;;;;5014375;28;20095;-60
2023/01/22 07:55:18;;;;;;;25.85;14.60;;;0.50;99.90;;;;;;5014587;28;20591;-60
2023/01/22 07:57:44;;;;;;;10.05;8.98;;;0.60;99.90;;;;;;5014007;28;20432;-59
2023/01/22 08:00:11;;;;;;;11.90;8.23;;;0.70;99.90;;;;;;5018245;28;20021;-60
2023/01/22 08:02:38;;;;;;;9.65;8.10;;;0.70;99.90;;;;;;5010602;28;20196;-60
2023/01/22 08:05:05;;;;;;;16.73;12.10;;;0.70;99.90;;;;;;5004104;28;20022;-60
2023/01/22 08:07:31;;;;;;;31.33;18.83;;;0.70;99.90;;;;;;5007746;28;20060;-59
2023/01/22 08:09:56;;;;;;;39.80;23.58;;;0.80;99.90;;;;;;5016800;28;20725;-60
2023/01/22 08:12:22;;;;;;;44.22;24.67;;;0.80;99.90;;;;;;5014504;28;20476;-59
2023/01/22 08:14:48;;;;;;;46.40;25.60;;;0.90;99.90;;;;;;5009779;28;20030;-60
2023/01/22 08:17:14;;;;;;;31.15;20.45;;;0.90;99.90;;;;;;5004224;28;20033;-60
2023/01/22 08:19:39;;;;;;;14.32;10.95;;;0.90;99.90;;;;;;5017410;28;20128;-60
2023/01/22 08:22:05;;;;;;;14.18;10.32;;;0.90;99.90;;;;;;5012169;28;20101;-60
2023/01/22 08:24:31;;;;;;;53.17;28.17;;;1.00;99.90;;;;;;5005463;28;20036;-60
2023/01/22 08:26:57;;;;;;;16.85;13.23;;;1.10;99.90;;;;;;5005780;28;20359;-59
2023/01/22 08:29:23;;;;;;;20.17;14.35;;;1.10;99.90;;;;;;5008731;28;20027;-60
2023/01/22 08:31:49;;;;;;;15.38;12.77;;;1.20;99.90;;;;;;5016687;28;20021;-60
2023/01/22 08:34:15;;;;;;;11.98;10.30;;;1.20;99.90;;;;;;5017104;28;20116;-60
2023/01/22 08:36:40;;;;;;;9.70;8.70;;;1.30;99.90;;;;;;5013155;28;20034;-60
2023/01/22 08:39:06;;;;;;;10.82;9.75;;;1.30;99.90;;;;;;5005226;28;20041;-60
2023/01/22 08:41:32;;;;;;;16.42;11.98;;;1.30;99.90;;;;;;5007976;28;20037;-60
2023/01/22 08:43:57;;;;;;;9.48;8.55;;;1.30;99.90;;;;;;5010174;28;20042;-60
2023/01/22 08:46:23;;;;;;;12.70;9.07;;;1.20;99.90;;;;;;5004644;28;20030;-60
2023/01/22 08:48:49;;;;;;;12.23;9.52;;;1.20;99.90;;;;;;5006911;28;20033;-61
2023/01/22 08:51:15;;;;;;;10.52;8.75;;;1.10;99.90;;;;;;5012467;28;20033;-60
2023/01/22 08:53:41;;;;;;;11.48;9.43;;;1.10;99.90;;;;;;5005679;28;20037;-59
2023/01/22 08:56:07;;;;;;;9.27;8.35;;;1.10;99.90;;;;;;5012862;28;20023;-60
2023/01/22 08:58:32;;;;;;;9.18;7.95;;;1.10;99.90;;;;;;5012270;28;20490;-60
2023/01/22 09:00:58;;;;;;;12.25;8.63;;;1.10;99.90;;;;;;5005891;28;20033;-61
2023/01/22 09:03:24;;;;;;;9.88;8.88;;;1.10;99.90;;;;;;5008792;28;20025;-61
2023/01/22 09:05:50;;;;;;;12.98;11.68;;;1.10;99.90;;;;;;5006260;28;20042;-61
2023/01/22 09:08:16;;;;;;;9.75;8.75;;;1.20;99.90;;;;;;5014294;28;20045;-60
2023/01/22 09:10:43;;;;;;;10.65;9.40;;;1.20;99.90;;;;;;5010033;28;20022;-61
2023/01/22 09:13:09;;;;;;;10.57;9.35;;;1.30;99.90;;;;;;5014574;28;20057;-61
2023/01/22 09:15:35;;;;;;;6.97;6.28;;;1.30;99.90;;;;;;5010222;28;20025;-59
2023/01/22 09:18:01;;;;;;;9.13;8.30;;;1.40;99.90;;;;;;5003019;28;20120;-60
2023/01/22 09:20:27;;;;;;;8.85;7.78;;;1.40;99.90;;;;;;5002040;28;20092;-60
2023/01/22 09:22:53;;;;;;;10.35;7.82;;;1.40;99.90;;;;;;5002494;28;20496;-60
2023/01/22 09:25:19;;;;;;;6.35;5.75;;;1.50;99.90;;;;;;5002550;28;20042;-61
2023/01/22 09:27:45;;;;;;;5.97;5.38;;;1.50;99.90;;;;;;5014085;28;20046;-60
2023/01/22 09:30:13;;;;;;;7.32;6.22;;;1.50;99.90;;;;;;5011565;28;20502;-60
2023/01/22 09:32:39;;;;;;;7.30;6.47;;;1.50;99.90;;;;;;5011673;28;20641;-61
2023/01/22 09:35:07;;;;;;;6.40;5.80;;;1.50;99.90;;;;;;5014440;28;20030;-60
2023/01/22 09:37:33;;;;;;;5.20;4.70;;;1.50;99.90;;;;;;5009692;28;20032;-61
2023/01/22 09:39:58;;;;;;;7.40;5.63;;;1.50;99.90;;;;;;5010063;28;20033;-60
2023/01/22 09:42:34;;;;;;;6.90;5.80;;;1.60;99.90;;;;;;5008802;28;20032;-60
2023/01/22 09:45:08;;;;;;;7.07;5.32;;;1.60;99.90;;;;;;5012676;28;20513;-60
2023/01/22 09:47:42;;;;;;;6.55;5.88;;;1.60;99.90;;;;;;5011103;28;20044;-61
2023/01/22 09:50:22;;;;;;;6.32;5.57;;;1.60;99.90;;;;;;5011605;28;20030;-60
2023/01/22 09:52:51;;;;;;;6.25;5.38;;;1.70;99.90;;;;;;5009117;28;20026;-60
2023/01/22 09:55:20;;;;;;;6.47;5.70;;;1.80;99.90;;;;;;5008513;28;20022;-59
2023/01/22 09:57:48;;;;;;;6.22;5.60;;;1.80;99.90;;;;;;5014438;28;20034;-60
2023/01/22 10:00:25;;;;;;;6.82;5.95;;;1.80;99.90;;;;;;5011817;28;20060;-60
2023/01/22 10:03:00;;;;;;;6.32;5.72;;;1.80;99.90;;;;;;5003889;28;20035;-60
2023/01/22 10:05:50;;;;;;;6.68;6.00;;;1.80;99.90;;;;;;5001175;28;20030;-60
2023/01/22 10:08:22;;;;;;;7.32;5.50;;;1.80;99.90;;;;;;5008142;28;20029;-60
2023/01/22 10:10:50;;;;;;;6.70;5.88;;;1.80;99.90;;;;;;5006656;28;20034;-60
2023/01/22 10:13:36;;;;;;;7.72;6.10;;;1.80;99.90;;;;;;5014524;28;20088;-60
2023/01/22 10:16:03;;;;;;;12.73;10.38;;;1.80;99.90;;;;;;5013932;28;20034;-61
2023/01/22 10:18:59;;;;;;;12.80;9.27;;;1.80;99.90;;;;;;5015905;28;20062;-60
2023/01/22 10:21:29;;;;;;;30.23;24.33;;;1.90;99.90;;;;;;5011276;28;20045;-60
2023/01/22 10:23:55;;;;;;;11.77;10.68;;;1.90;99.90;;;;;;5016541;28;20498;-61
2023/01/22 10:26:36;;;;;;;9.43;7.22;;;2.00;99.90;;;;;;5013883;28;20065;-61
2023/01/22 10:29:27;;;;;;;16.30;14.80;;;2.00;99.90;;;;;;5012962;28;20030;-61
2023/01/22 10:31:55;;;;;;;11.50;9.02;;;2.00;99.90;;;;;;5003535;28;20053;-61
2023/01/22 10:34:21;;;;;;;11.68;10.45;;;2.00;99.90;;;;;;5010341;28;20034;-60
2023/01/22 10:36:51;;;;;;;10.73;9.73;;;2.00;99.90;;;;;;5016317;28;20374;-60
2023/01/22 10:39:17;;;;;;;11.90;10.80;;;2.00;99.90;;;;;;5017437;28;20061;-60
2023/01/22 10:41:45;;;;;;;8.65;7.68;;;2.00;99.90;;;;;;5011685;28;20029;-61
2023/01/22 10:44:24;;;;;;;8.38;7.30;;;2.10;99.90;;;;;;5016276;28;20050;-61
2023/01/22 10:46:51;;;;;;;6.97;6.28;;;2.20;99.90;;;;;;5010453;28;20045;-60
2023/01/22 10:49:26;;;;;;;6.15;5.53;;;2.20;99.90;;;;;;5016526;28;20034;-61
2023/01/22 10:51:57;;;;;;;7.63;6.80;;;2.20;99.90;;;;;;5009536;28;20565;-61
2023/01/22 10:54:38;;;;;;;7.10;6.40;;;2.30;99.90;;;;;;5010908;28;20037;-61
2023/01/22 10:57:21;;;;;;;7.15;6.25;;;2.30;99.90;;;;;;5003037;28;20022;-60
2023/01/22 11:00:03;;;;;;;7.47;6.53;;;2.20;99.90;;;;;;5001702;28;20037;-61
2023/01/22 11:02:28;;;;;;;9.23;8.35;;;2.30;99.90;;;;;;5003227;28;20037;-61
2023/01/22 11:04:55;;;;;;;6.68;5.28;;;2.30;99.90;;;;;;5015664;28;20034;-60
2023/01/22 11:07:31;;;;;;;5.50;4.45;;;2.30;99.90;;;;;;5012010;28;20045;-60
2023/01/22 11:10:21;;;;;;;5.80;4.80;;;2.30;99.90;;;;;;5009752;28;20037;-61
2023/01/22 11:12:53;;;;;;;6.57;5.88;;;2.30;99.90;;;;;;5013547;28;20030;-60
2023/01/22 11:15:30;;;;;;;8.73;5.43;;;2.20;99.90;;;;;;5010397;28;20074;-60
2023/01/22 11:18:00;;;;;;;7.05;5.07;;;2.20;99.90;;;;;;4999550;28;20143;-60
2023/01/22 11:20:28;;;;;;;5.97;4.63;;;2.30;99.90;;;;;;5005899;28;20026;-59
2023/01/22 11:23:09;;;;;;;5.10;4.57;;;2.30;99.90;;;;;;5014077;28;20488;-60
2023/01/22 11:25:53;;;;;;;6.43;4.60;;;2.30;99.90;;;;;;5012084;28;20112;-59
2023/01/22 11:28:40;;;;;;;5.55;4.78;;;2.30;99.90;;;;;;5021816;28;20126;-59
2023/01/22 11:31:15;;;;;;;5.93;4.82;;;2.30;99.90;;;;;;5002341;28;20045;-59
2023/01/22 11:34:17;;;;;;;6.65;5.43;;;2.20;99.90;;;;;;5012648;28;20520;-59
2023/01/22 11:36:54;;;;;;;5.20;4.63;;;2.20;99.90;;;;;;5013549;28;20184;-59
2023/01/22 11:39:31;;;;;;;10.07;7.75;;;2.30;99.90;;;;;;5009155;28;20029;-59
2023/01/22 11:42:12;;;;;;;5.35;4.85;;;2.30;99.90;;;;;;5009613;28;20610;-60
2023/01/22 11:44:46;;;;;;;5.03;4.22;;;2.40;99.90;;;;;;5011011;28;20022;-60
2023/01/22 11:47:23;;;;;;;6.35;4.57;;;2.40;99.90;;;;;;5015243;28;20038;-59
2023/01/22 11:50:28;;;;;;;12.15;7.85;;;2.40;99.90;;;;;;5012794;28;20140;-58
2023/01/22 11:53:04;;;;;;;6.82;5.20;;;2.50;99.90;;;;;;4999768;28;20116;-60
2023/01/22 11:55:55;;;;;;;7.15;5.55;;;2.50;99.90;;;;;;5008310;28;20557;-60
2023/01/22 11:58:48;;;;;;;6.30;5.65;;;2.40;99.90;;;;;;5008945;28;20569;-60
2023/01/22 12:01:23;;;;;;;6.15;5.22;;;2.40;99.90;;;;;;5006538;28;20428;-60
2023/01/22 12:04:16;;;;;;;5.70;3.78;;;2.40;99.90;;;;;;5004087;28;20076;-60
2023/01/22 12:07:20;;;;;;;5.70;4.78;;;2.40;99.90;;;;;;5008015;28;20030;-60
2023/01/22 12:10:15;;;;;;;5.57;4.45;;;2.30;99.90;;;;;;5011661;28;20018;-60
2023/01/22 12:13:04;;;;;;;5.55;5.00;;;2.20;99.90;;;;;;4994885;28;20378;-60
2023/01/22 12:15:52;;;;;;;6.25;5.65;;;2.10;99.90;;;;;;5010854;28;20026;-61
2023/01/22 12:18:32;;;;;;;7.32;6.57;;;2.10;99.90;;;;;;5012799;28;20895;-59
2023/01/22 12:21:08;;;;;;;6.80;5.80;;;2.10;99.90;;;;;;5016237;28;20026;-59
2023/01/22 12:23:48;;;;;;;7.57;6.50;;;2.20;99.90;;;;;;5010777;28;20030;-59
2023/01/22 12:26:22;;;;;;;10.23;7.33;;;2.30;99.90;;;;;;5012630;28;20033;-59
2023/01/22 12:29:00;;;;;;;7.80;5.90;;;2.40;99.90;;;;;;5011589;28;20033;-61
2023/01/22 12:31:36;;;;;;;22.45;15.02;;;2.40;99.90;;;;;;5006987;28;20549;-60
2023/01/22 12:34:09;;;;;;;6.05;4.43;;;2.50;99.90;;;;;;5013819;28;20046;-59
2023/01/22 12:36:35;;;;;;;6.40;4.90;;;2.40;99.90;;;;;;5010234;28;20029;-60
2023/01/22 12:39:19;;;;;;;5.28;3.85;;;2.40;99.90;;;;;;5012507;28;20034;-59
2023/01/22 12:41:50;;;;;;;7.13;4.88;;;2.30;99.90;;;;;;5006159;28;20031;-59
2023/01/22 12:44:30;;;;;;;4.70;4.18;;;2.30;99.90;;;;;;5006083;28;20049;-59
2023/01/22 12:47:07;;;;;;;5.77;4.97;;;2.30;99.90;;;;;;5005400;28;20088;-60
2023/01/22 12:49:47;;;;;;;8.65;7.07;;;2.40;99.90;;;;;;5011403;28;20264;-60
2023/01/22 12:52:37;;;;;;;5.40;4.82;;;2.50;99.90;;;;;;5007479;28;20029;-60
2023/01/22 12:55:28;;;;;;;6.50;5.45;;;2.50;99.90;;;;;;5000704;28;20141;-59
2023/01/22 12:57:53;;;;;;;5.60;5.10;;;2.60;99.90;;;;;;5003150;28;20447;-59
2023/01/22 13:00:23;;;;;;;7.47;6.78;;;2.70;99.90;;;;;;5005346;28;20106;-60
2023/01/22 13:02:48;;;;;;;7.32;5.93;;;2.80;99.90;;;;;;5008479;28;20033;-59
2023/01/22 13:05:17;;;;;;;6.88;4.53;;;2.80;99.90;;;;;;5014787;28;20026;-60
2023/01/22 13:07:43;;;;;;;5.30;4.10;;;2.70;99.90;;;;;;5016640;28;20041;-59
2023/01/22 13:10:18;;;;;;;5.47;4.65;;;2.70;99.90;;;;;;4995369;28;20033;-59